Green Duck — DK5449 — position and weather

sailwx.info

Track history (hours):
 
Tides and Currents Weather Stations Pressure Air Temp Water Temp Dewpoint Dewpoint Depression Visibility Wind Speed Wind Dir Waves Ship Positions

Green Duck

Last reported at 2017-Sep-22 01:26 UTC. Time now 2017-Sep-24 15:46 UTC.
Position S 22°20' E 166°24'.

Length 12 m.

Type: Sailing vessel. MMSI: 211492350.

Date/timePositionNaut miles runAvg speedWind from/ knotsBaromVisibWave heightAir tempDewpointWater temp
2017-Sep-22 01:26S 22°20' E 166°24'0 0.0
2017-Sep-22 00:56S 22°20' E 166°24'0 0.0
2017-Sep-22 00:26S 22°20' E 166°24'0 0.0
2017-Sep-21 23:50S 22°20' E 166°24'0 0.0
2017-Sep-21 23:29S 22°20' E 166°24'0 0.0
2017-Sep-21 22:59S 22°20' E 166°24'2 4.3
2017-Sep-21 22:29S 22°18' E 166°25'2 0.1
2017-Sep-21 04:28S 22°16' E 166°26'1 1.6
2017-Sep-21 04:00S 22°17' E 166°26'0 0.0
2017-Sep-21 03:30S 22°17' E 166°26'0 0.0
2017-Sep-21 02:54S 22°17' E 166°26'0 0.0
2017-Sep-21 02:30S 22°17' E 166°26'0 0.0
2017-Sep-21 02:00S 22°17' E 166°26'0 0.0
2017-Sep-21 01:30S 22°17' E 166°26'0 0.0
2017-Sep-21 01:00S 22°17' E 166°26'0 0.0
2017-Sep-21 00:30S 22°17' E 166°26'0 0.0
2017-Sep-21 00:00S 22°17' E 166°26'0 0.0
2017-Sep-20 23:30S 22°17' E 166°26'0 0.0
2017-Sep-20 23:00S 22°17' E 166°26'0 0.0
2017-Sep-20 22:30S 22°17' E 166°26'0 0.0
2017-Sep-20 22:00S 22°17' E 166°26'0 0.0
2017-Sep-20 02:33S 22°17' E 166°26'0 0.2
2017-Sep-20 02:29S 22°17' E 166°26'2 3.4
2017-Sep-20 02:00S 22°18' E 166°25'2 3.0
2017-Sep-20 01:29S 22°20' E 166°24'0 0.0
2017-Sep-18 22:23S 22°20' E 166°24'0 0.0
2017-Sep-18 21:59S 22°20' E 166°24'0 0.0
2017-Sep-18 03:02S 22°20' E 166°24'0 0.0
2017-Sep-18 03:00S 22°20' E 166°24'0 0.0
2017-Sep-16 23:55S 22°20' E 166°24'0 0.0
2017-Sep-16 19:47S 22°20' E 166°24'0 0.0
2017-Sep-15 23:29S 22°20' E 166°24'0 0.0
2017-Sep-15 22:58S 22°20' E 166°24'0 0.0
2017-Sep-15 19:30S 22°20' E 166°24'0 0.0
2017-Sep-15 04:56S 22°20' E 166°24'0 0.0
2017-Sep-15 04:23S 22°20' E 166°24'1 2.3
2017-Sep-15 04:00S 22°19' E 166°25'2 4.7
2017-Sep-15 03:30S 22°17' E 166°26'1 1.1
2017-Sep-15 02:58S 22°16' E 166°26'0 0.0
2017-Sep-15 02:28S 22°16' E 166°26'0 0.0
2017-Sep-15 01:58S 22°16' E 166°26'0 0.1
2017-Sep-15 01:28S 22°16' E 166°26'0 0.1
2017-Sep-15 00:58S 22°16' E 166°26'0 0.0
2017-Sep-14 22:52S 22°16' E 166°26'0 0.0
2017-Sep-14 22:28S 22°16' E 166°26'0 0.0
2017-Sep-14 21:55S 22°16' E 166°26'0 0.0
2017-Sep-14 21:07S 22°16' E 166°26'0 2.6
2017-Sep-14 21:00S 22°17' E 166°26'2 4.6
2017-Sep-14 20:30S 22°19' E 166°25'1 0.0
2017-Sep-13 01:36S 22°20' E 166°24'0 0.0
2017-Sep-13 01:30S 22°20' E 166°24'2 4.2
2017-Sep-13 01:00S 22°18' E 166°25'2 0.8
2017-Sep-12 22:46S 22°16' E 166°26'1 2.5
2017-Sep-12 22:30S 22°17' E 166°26'3 5.5
2017-Sep-12 22:00S 22°20' E 166°24'0 0.0
2017-Sep-12 02:13S 22°20' E 166°24'0 0.0
2017-Sep-12 01:55S 22°20' E 166°24'  
Track history (hours):
 
Tides and Currents Weather Stations Pressure Air Temp Water Temp Dewpoint Dewpoint Depression Visibility Wind Speed Wind Dir Waves Ship Positions

Green Duck

Last reported at 2017-Sep-22 01:26 UTC. Time now 2017-Sep-24 15:46 UTC.
Position S 22°20' E 166°24'.

Length 12 m.

Type: Sailing vessel. MMSI: 211492350.

Date/timePositionNaut miles runAvg speedWind from/ knotsBaromVisibWave heightAir tempDewpointWater temp
2017-Sep-22 01:26S 22°20' E 166°24'0 0.0
2017-Sep-22 00:56S 22°20' E 166°24'0 0.0
2017-Sep-22 00:26S 22°20' E 166°24'0 0.0
2017-Sep-21 23:50S 22°20' E 166°24'0 0.0
2017-Sep-21 23:29S 22°20' E 166°24'0 0.0
2017-Sep-21 22:59S 22°20' E 166°24'2 4.3
2017-Sep-21 22:29S 22°18' E 166°25'2 0.1
2017-Sep-21 04:28S 22°16' E 166°26'1 1.6
2017-Sep-21 04:00S 22°17' E 166°26'0 0.0
2017-Sep-21 03:30S 22°17' E 166°26'0 0.0
2017-Sep-21 02:54S 22°17' E 166°26'0 0.0
2017-Sep-21 02:30S 22°17' E 166°26'0 0.0
2017-Sep-21 02:00S 22°17' E 166°26'0 0.0
2017-Sep-21 01:30S 22°17' E 166°26'0 0.0
2017-Sep-21 01:00S 22°17' E 166°26'0 0.0
2017-Sep-21 00:30S 22°17' E 166°26'0 0.0
2017-Sep-21 00:00S 22°17' E 166°26'0 0.0
2017-Sep-20 23:30S 22°17' E 166°26'0 0.0
2017-Sep-20 23:00S 22°17' E 166°26'0 0.0
2017-Sep-20 22:30S 22°17' E 166°26'0 0.0
2017-Sep-20 22:00S 22°17' E 166°26'0 0.0
2017-Sep-20 02:33S 22°17' E 166°26'0 0.2
2017-Sep-20 02:29S 22°17' E 166°26'2 3.4
2017-Sep-20 02:00S 22°18' E 166°25'2 3.0
2017-Sep-20 01:29S 22°20' E 166°24'0 0.0
2017-Sep-18 22:23S 22°20' E 166°24'0 0.0
2017-Sep-18 21:59S 22°20' E 166°24'0 0.0
2017-Sep-18 03:02S 22°20' E 166°24'0 0.0
2017-Sep-18 03:00S 22°20' E 166°24'0 0.0
2017-Sep-16 23:55S 22°20' E 166°24'0 0.0
2017-Sep-16 19:47S 22°20' E 166°24'0 0.0
2017-Sep-15 23:29S 22°20' E 166°24'0 0.0
2017-Sep-15 22:58S 22°20' E 166°24'0 0.0
2017-Sep-15 19:30S 22°20' E 166°24'0 0.0
2017-Sep-15 04:56S 22°20' E 166°24'0 0.0
2017-Sep-15 04:23S 22°20' E 166°24'1 2.3
2017-Sep-15 04:00S 22°19' E 166°25'2 4.7
2017-Sep-15 03:30S 22°17' E 166°26'1 1.1
2017-Sep-15 02:58S 22°16' E 166°26'0 0.0
2017-Sep-15 02:28S 22°16' E 166°26'0 0.0
2017-Sep-15 01:58S 22°16' E 166°26'0 0.1
2017-Sep-15 01:28S 22°16' E 166°26'0 0.1
2017-Sep-15 00:58S 22°16' E 166°26'0 0.0
2017-Sep-14 22:52S 22°16' E 166°26'0 0.0
2017-Sep-14 22:28S 22°16' E 166°26'0 0.0
2017-Sep-14 21:55S 22°16' E 166°26'0 0.0
2017-Sep-14 21:07S 22°16' E 166°26'0 2.6
2017-Sep-14 21:00S 22°17' E 166°26'2 4.6
2017-Sep-14 20:30S 22°19' E 166°25'1 0.0
2017-Sep-13 01:36S 22°20' E 166°24'0 0.0
2017-Sep-13 01:30S 22°20' E 166°24'2 4.2
2017-Sep-13 01:00S 22°18' E 166°25'2 0.8
2017-Sep-12 22:46S 22°16' E 166°26'1 2.5
2017-Sep-12 22:30S 22°17' E 166°26'3 5.5
2017-Sep-12 22:00S 22°20' E 166°24'0 0.0
2017-Sep-12 02:13S 22°20' E 166°24'0 0.0
2017-Sep-12 01:55S 22°20' E 166°24'  

Dump ship's entire track history